Rucker, Arizona
Current Conditions -  °F | °C
As of 4:51 PM on Saturday 22 Nov 2014 (Local Time) from KSAD Reporting Station
Clear Clear  
Wind Chill: 63°   Ceiling: Unl
Heat Index: 63°   Visibility: 10mi
Dew Point: 21°   Wind: 9mph
Humidity: 20%   Direction: 260°W
Pressure: 29.94"   Gusts: NA
Location:  32.5598°N, 110.08°W
Report Text: KSAD 222351Z AUTO 26008KT 10SM CLR 17/M06 A2994 RMK AO2 SLP124 T01721061 10194 20122 56016
Loading
Personal Weather Stations






























Interactive Weather Map New forecast layout! Learn more

10-Day Weather Forecast

Advertisements
Track Severe Weather on mobile